Towncrest Village, Pennsylvania
Current Conditions -  °F | °C
As of 11:54 AM on Friday 19 Dec 2014 (Local Time) from KIPT Reporting Station
Overcast Overcast  
Wind Chill: 28°   Ceiling: 3600
Heat Index: 37°   Visibility: 10mi
Dew Point: 20°   Wind: 14mph
Humidity: 50%   Direction: 300°WNW
Pressure: 30.1"   Gusts: NA
Location:  41.246°N, 77.0167°W
Report Text: KIPT 191654Z 30012KT 10SM OVC036 03/M07 A3010 RMK AO2 SLP197 T00281067
Loading
Personal Weather Stations






























Interactive Weather Map New forecast layout! Learn more

10-Day Weather Forecast

Advertisements
Track Severe Weather on mobile